Flugplatz Münster Osnabrück

Bericht für EDDG

vom 23.01. um 14:50 UTC

Wind 3 kt aus 90°

Sichtweite 9000 m

aufgebrochene Bewölkung in 2200 ft

Temperatur -2.0°C

Taupunkt -7.0°C

Luftfeuchtigkeit 69%

Luftdruck 1001 hPa

keine wesentliche Wetteränderung innerhalb den nächsten 2 Stunden zu erwarten

EDDG 231450Z 09003KT 050V170 9000 BKN022 M02/M07 Q1001 NOSIG

Prognose für EDDG

vom 23.01. um 11:00 UTC

Zwischen 12:00 UTC und 14:00 UTC

Wind 5 kt aus 60°

Sichtweite 10 km oder mehr

gering bewölkt in 2000 ft


Zwischen 14:00 und 17:00 UTC übergehend zu

variable Windrichtung mit 3 kt

Sichtweite 10 km oder mehr

gering bewölkt in 2000 ft


Am 24.01. zwischen 03:00 und 06:00 UTC übergehend zu

variable Windrichtung mit 3 kt

Sichtweite 4000 m

feuchter Dunst

gering bewölkt in 2000 ft


Am 24.01. zwischen 06:00 UTC und 10:00 UTC zeitweise mit einer Wahrscheinlichkeit von 30%

aufgebrochene Bewölkung in 1000 ft


Am 24.01. zwischen 10:00 und 12:00 UTC übergehend zu

variable Windrichtung mit 3 kt

Sichtweite 6000 m

feuchter Dunst

gering bewölkt in 2000 ft

TAF EDDG 231100Z 2312/2412 06005KT 9999 FEW020 BECMG 2314/2317 VRB03KT BECMG 2403/2406 4000 BR PROB30 TEMPO 2406/2410 BKN010 BECMG 2410/2412 6000
Impressum